This is the latest recevied weather packets stored in our database for station/object W5HKR. If no packets are shown the sender has not sent any weather packets the latest 10 day(s).
| Time | Temp. | Humidity | Pressure | Rain* | Wind** | Luminosity | Snow |
|---|---|---|---|---|---|---|---|
| 1777634301 | 18.33° C | 91% | 990.6 hPa | 9.4 mm | - | - | - |
| 1777634002 | 16.11° C | 98% | 984.8 hPa | 8.38 mm | - | - | - |
| 1777633702 | 18.33° C | 91% | 990.6 hPa | 8.13 mm | - | - | - |
| 1777633473 | 18.33° C | 91% | 990.6 hPa | 7.62 mm | - | - | - |
| 1777633401 | 16.11° C | 98% | 983.3 hPa | 7.62 mm | - | - | - |
| 1777633101 | 18.33° C | 91% | 990.6 hPa | 7.62 mm | - | - | - |
| 1777632801 | 16.67° C | 98% | 983.1 hPa | 7.62 mm | - | - | - |
| 1777632500 | 16.67° C | 98% | 983.1 hPa | 8.89 mm | - | - | - |
| 1777632395 | 18.33° C | 91% | 990.6 hPa | 10.41 mm | - | - | - |
| 1777632202 | 18.33° C | 91% | 990.6 hPa | 10.41 mm | - | - | - |
| 1777631900 | 16.67° C | 98% | 983.4 hPa | 9.91 mm | - | - | - |
| 1777631600 | 18.33° C | 91% | 990.6 hPa | 11.94 mm | - | - | - |
| 1777631301 | 16.67° C | 98% | 982.9 hPa | 12.95 mm | - | - | - |
| 1777631068 | 16.67° C | 98% | 982.4 hPa | 13.46 mm | - | - | - |
| 1777631001 | 16.67° C | 98% | 982.4 hPa | 13.46 mm | - | - | - |
| 1777630701 | 16.67° C | 97% | 982.7 hPa | 13.21 mm | - | - | - |
| 1777630401 | 18.33° C | 91% | 990.6 hPa | 13.21 mm | - | - | - |
| 1777630232 | 18.33° C | 91% | 990.6 hPa | 13.21 mm | - | - | - |
| 1777630100 | 16.67° C | 97% | 982.7 hPa | 12.95 mm | - | - | - |
| 1777629801 | 18.33° C | 91% | 990.6 hPa | 12.95 mm | - | - | - |
| 1777629501 | 18.33° C | 91% | 990.6 hPa | 12.95 mm | - | - | - |
| 1777629202 | 16.67° C | 97% | 982.2 hPa | 12.7 mm | - | - | - |
| 1777629153 | 16.67° C | 97% | 982.7 hPa | 12.45 mm | - | - | - |
| 1777628902 | 18.33° C | 91% | 990.6 hPa | 11.68 mm | - | - | - |
| 1777628601 | 18.33° C | 91% | 990.6 hPa | 9.4 mm | - | - | - |
* Rain latest hour (hover to see other rain measurements)
** Current wind speed in m/s (hover to see current wind gust speed)